sensor_id;sensor_type;location;lat;lon;timestamp;P1;durP1;ratioP1;P2;durP2;ratioP2
47912;SDS011;33676;51.006;17.180;2023-08-17T00:01:53;3.40;;;3.20;;
47912;SDS011;33676;51.006;17.180;2023-08-17T00:04:22;3.20;;;3.00;;
47912;SDS011;33676;51.006;17.180;2023-08-17T00:06:50;3.30;;;3.10;;
47912;SDS011;33676;51.006;17.180;2023-08-17T00:09:19;3.40;;;2.90;;
47912;SDS011;33676;51.006;17.180;2023-08-17T00:11:47;3.50;;;3.20;;
47912;SDS011;33676;51.006;17.180;2023-08-17T00:14:16;3.50;;;3.30;;
47912;SDS011;33676;51.006;17.180;2023-08-17T00:16:44;3.30;;;3.00;;
47912;SDS011;33676;51.006;17.180;2023-08-17T00:19:13;4.00;;;3.70;;
47912;SDS011;33676;51.006;17.180;2023-08-17T00:21:41;3.60;;;3.20;;
47912;SDS011;33676;51.006;17.180;2023-08-17T00:24:10;4.10;;;3.70;;
47912;SDS011;33676;51.006;17.180;2023-08-17T00:26:38;3.10;;;2.80;;
47912;SDS011;33676;51.006;17.180;2023-08-17T00:29:07;3.10;;;2.70;;
47912;SDS011;33676;51.006;17.180;2023-08-17T00:31:35;6.40;;;3.20;;
47912;SDS011;33676;51.006;17.180;2023-08-17T00:34:04;3.10;;;2.80;;
47912;SDS011;33676;51.006;17.180;2023-08-17T00:36:32;3.30;;;3.00;;
47912;SDS011;33676;51.006;17.180;2023-08-17T00:39:01;3.10;;;2.70;;
47912;SDS011;33676;51.006;17.180;2023-08-17T00:41:29;3.50;;;3.30;;
47912;SDS011;33676;51.006;17.180;2023-08-17T00:43:59;3.30;;;2.80;;
47912;SDS011;33676;51.006;17.180;2023-08-17T00:46:29;3.10;;;2.90;;
47912;SDS011;33676;51.006;17.180;2023-08-17T00:48:58;5.30;;;3.50;;
47912;SDS011;33676;51.006;17.180;2023-08-17T00:51:27;4.10;;;2.60;;
47912;SDS011;33676;51.006;17.180;2023-08-17T00:54:00;3.60;;;3.10;;
47912;SDS011;33676;51.006;17.180;2023-08-17T00:56:29;4.10;;;2.80;;
47912;SDS011;33676;51.006;17.180;2023-08-17T00:58:58;3.40;;;3.00;;
47912;SDS011;33676;51.006;17.180;2023-08-17T01:01:27;3.60;;;3.30;;
47912;SDS011;33676;51.006;17.180;2023-08-17T01:03:55;3.50;;;3.20;;
47912;SDS011;33676;51.006;17.180;2023-08-17T01:06:24;3.20;;;3.00;;
47912;SDS011;33676;51.006;17.180;2023-08-17T01:08:53;3.90;;;3.40;;
47912;SDS011;33676;51.006;17.180;2023-08-17T01:17:13;4.50;;;3.80;;
47912;SDS011;33676;51.006;17.180;2023-08-17T01:19:50;4.40;;;3.80;;
47912;SDS011;33676;51.006;17.180;2023-08-17T01:22:21;5.00;;;4.00;;
47912;SDS011;33676;51.006;17.180;2023-08-17T01:24:50;4.00;;;3.70;;
47912;SDS011;33676;51.006;17.180;2023-08-17T01:27:25;4.20;;;4.00;;
47912;SDS011;33676;51.006;17.180;2023-08-17T01:29:57;4.00;;;3.70;;
47912;SDS011;33676;51.006;17.180;2023-08-17T01:32:32;4.00;;;2.80;;
47912;SDS011;33676;51.006;17.180;2023-08-17T01:35:45;4.20;;;3.80;;
47912;SDS011;33676;51.006;17.180;2023-08-17T01:38:18;4.00;;;3.20;;
47912;SDS011;33676;51.006;17.180;2023-08-17T01:40:50;3.20;;;2.90;;
47912;SDS011;33676;51.006;17.180;2023-08-17T01:43:21;3.50;;;3.20;;
47912;SDS011;33676;51.006;17.180;2023-08-17T01:45:50;4.20;;;3.50;;
47912;SDS011;33676;51.006;17.180;2023-08-17T01:48:18;5.30;;;3.80;;
47912;SDS011;33676;51.006;17.180;2023-08-17T01:50:47;4.10;;;3.50;;
47912;SDS011;33676;51.006;17.180;2023-08-17T01:53:15;3.50;;;3.30;;
47912;SDS011;33676;51.006;17.180;2023-08-17T01:55:44;3.40;;;3.20;;
47912;SDS011;33676;51.006;17.180;2023-08-17T01:58:12;4.00;;;3.60;;
47912;SDS011;33676;51.006;17.180;2023-08-17T02:00:40;3.30;;;3.10;;
47912;SDS011;33676;51.006;17.180;2023-08-17T02:03:09;3.50;;;3.30;;
47912;SDS011;33676;51.006;17.180;2023-08-17T02:05:38;6.00;;;4.00;;
47912;SDS011;33676;51.006;17.180;2023-08-17T02:08:06;3.80;;;3.50;;
47912;SDS011;33676;51.006;17.180;2023-08-17T02:10:36;4.40;;;4.00;;
47912;SDS011;33676;51.006;17.180;2023-08-17T02:13:04;4.70;;;3.70;;
47912;SDS011;33676;51.006;17.180;2023-08-17T02:15:48;3.50;;;3.30;;
47912;SDS011;33676;51.006;17.180;2023-08-17T02:18:17;6.90;;;6.20;;
47912;SDS011;33676;51.006;17.180;2023-08-17T02:20:45;7.00;;;6.30;;
47912;SDS011;33676;51.006;17.180;2023-08-17T02:23:13;6.00;;;5.40;;
47912;SDS011;33676;51.006;17.180;2023-08-17T02:25:42;6.90;;;5.50;;
47912;SDS011;33676;51.006;17.180;2023-08-17T02:28:10;5.00;;;4.60;;
47912;SDS011;33676;51.006;17.180;2023-08-17T02:30:39;5.00;;;4.60;;
47912;SDS011;33676;51.006;17.180;2023-08-17T02:33:07;4.40;;;4.10;;
47912;SDS011;33676;51.006;17.180;2023-08-17T02:35:36;5.20;;;4.70;;
47912;SDS011;33676;51.006;17.180;2023-08-17T02:38:04;7.60;;;4.40;;
47912;SDS011;33676;51.006;17.180;2023-08-17T02:40:33;4.20;;;3.80;;
47912;SDS011;33676;51.006;17.180;2023-08-17T02:43:01;4.50;;;4.10;;
47912;SDS011;33676;51.006;17.180;2023-08-17T02:45:29;4.60;;;4.30;;
47912;SDS011;33676;51.006;17.180;2023-08-17T02:47:58;4.50;;;4.10;;
47912;SDS011;33676;51.006;17.180;2023-08-17T02:50:27;5.30;;;4.40;;
47912;SDS011;33676;51.006;17.180;2023-08-17T02:52:55;5.30;;;4.60;;
47912;SDS011;33676;51.006;17.180;2023-08-17T02:55:24;6.30;;;5.70;;
47912;SDS011;33676;51.006;17.180;2023-08-17T02:57:52;5.40;;;4.90;;
47912;SDS011;33676;51.006;17.180;2023-08-17T03:00:21;4.60;;;4.20;;
47912;SDS011;33676;51.006;17.180;2023-08-17T03:02:49;5.20;;;4.00;;
47912;SDS011;33676;51.006;17.180;2023-08-17T03:05:18;3.80;;;3.50;;
47912;SDS011;33676;51.006;17.180;2023-08-17T03:07:46;3.50;;;3.30;;
47912;SDS011;33676;51.006;17.180;2023-08-17T03:10:15;4.50;;;3.40;;
47912;SDS011;33676;51.006;17.180;2023-08-17T03:12:44;5.00;;;3.60;;
47912;SDS011;33676;51.006;17.180;2023-08-17T03:15:12;3.80;;;3.50;;
47912;SDS011;33676;51.006;17.180;2023-08-17T03:17:40;5.00;;;4.60;;
47912;SDS011;33676;51.006;17.180;2023-08-17T03:20:09;4.20;;;3.90;;
47912;SDS011;33676;51.006;17.180;2023-08-17T03:22:38;4.50;;;3.90;;
47912;SDS011;33676;51.006;17.180;2023-08-17T03:25:06;4.20;;;3.50;;
47912;SDS011;33676;51.006;17.180;2023-08-17T03:27:36;4.00;;;3.70;;
47912;SDS011;33676;51.006;17.180;2023-08-17T03:30:05;3.60;;;3.40;;
47912;SDS011;33676;51.006;17.180;2023-08-17T03:32:34;5.70;;;4.40;;
47912;SDS011;33676;51.006;17.180;2023-08-17T03:35:03;4.60;;;4.20;;
47912;SDS011;33676;51.006;17.180;2023-08-17T03:37:32;3.80;;;3.50;;
47912;SDS011;33676;51.006;17.180;2023-08-17T03:40:00;4.00;;;3.70;;
47912;SDS011;33676;51.006;17.180;2023-08-17T03:42:28;7.80;;;4.10;;
47912;SDS011;33676;51.006;17.180;2023-08-17T03:44:57;4.00;;;3.70;;
47912;SDS011;33676;51.006;17.180;2023-08-17T03:47:25;3.80;;;3.50;;
47912;SDS011;33676;51.006;17.180;2023-08-17T03:49:54;4.10;;;3.80;;
47912;SDS011;33676;51.006;17.180;2023-08-17T03:52:23;3.30;;;3.10;;
47912;SDS011;33676;51.006;17.180;2023-08-17T03:54:51;5.10;;;4.50;;
47912;SDS011;33676;51.006;17.180;2023-08-17T03:57:20;3.80;;;3.40;;
47912;SDS011;33676;51.006;17.180;2023-08-17T03:59:48;4.20;;;3.90;;
47912;SDS011;33676;51.006;17.180;2023-08-17T04:02:16;5.50;;;4.10;;
47912;SDS011;33676;51.006;17.180;2023-08-17T04:04:45;4.20;;;3.70;;
47912;SDS011;33676;51.006;17.180;2023-08-17T04:07:20;3.80;;;3.50;;
47912;SDS011;33676;51.006;17.180;2023-08-17T04:09:50;5.10;;;4.60;;
47912;SDS011;33676;51.006;17.180;2023-08-17T04:12:19;4.20;;;3.80;;
47912;SDS011;33676;51.006;17.180;2023-08-17T04:14:47;5.00;;;4.10;;
47912;SDS011;33676;51.006;17.180;2023-08-17T04:17:15;4.70;;;4.00;;
47912;SDS011;33676;51.006;17.180;2023-08-17T04:19:44;5.00;;;4.50;;
47912;SDS011;33676;51.006;17.180;2023-08-17T04:22:12;4.20;;;3.80;;
47912;SDS011;33676;51.006;17.180;2023-08-17T04:24:41;4.70;;;4.30;;
47912;SDS011;33676;51.006;17.180;2023-08-17T04:27:09;4.00;;;3.60;;
47912;SDS011;33676;51.006;17.180;2023-08-17T04:29:38;6.30;;;4.80;;
47912;SDS011;33676;51.006;17.180;2023-08-17T04:32:06;4.30;;;3.90;;
47912;SDS011;33676;51.006;17.180;2023-08-17T04:34:34;6.80;;;4.40;;
47912;SDS011;33676;51.006;17.180;2023-08-17T04:37:03;5.40;;;5.00;;
47912;SDS011;33676;51.006;17.180;2023-08-17T04:39:31;9.40;;;5.20;;
47912;SDS011;33676;51.006;17.180;2023-08-17T04:42:00;4.80;;;4.50;;
47912;SDS011;33676;51.006;17.180;2023-08-17T04:44:29;6.10;;;5.50;;
47912;SDS011;33676;51.006;17.180;2023-08-17T04:46:57;5.50;;;5.00;;
47912;SDS011;33676;51.006;17.180;2023-08-17T04:49:25;5.70;;;5.20;;
47912;SDS011;33676;51.006;17.180;2023-08-17T04:51:54;4.90;;;4.60;;
47912;SDS011;33676;51.006;17.180;2023-08-17T04:54:22;6.10;;;5.60;;
47912;SDS011;33676;51.006;17.180;2023-08-17T04:56:51;6.60;;;5.30;;
47912;SDS011;33676;51.006;17.180;2023-08-17T04:59:19;5.70;;;5.20;;
47912;SDS011;33676;51.006;17.180;2023-08-17T05:01:47;5.70;;;5.20;;
47912;SDS011;33676;51.006;17.180;2023-08-17T05:04:16;5.40;;;5.00;;
47912;SDS011;33676;51.006;17.180;2023-08-17T05:06:44;4.70;;;4.40;;
47912;SDS011;33676;51.006;17.180;2023-08-17T05:09:12;4.50;;;4.20;;
47912;SDS011;33676;51.006;17.180;2023-08-17T05:11:41;4.60;;;3.80;;
47912;SDS011;33676;51.006;17.180;2023-08-17T05:14:09;4.70;;;4.30;;
47912;SDS011;33676;51.006;17.180;2023-08-17T05:16:37;4.70;;;4.40;;
47912;SDS011;33676;51.006;17.180;2023-08-17T05:19:06;4.60;;;4.20;;
47912;SDS011;33676;51.006;17.180;2023-08-17T05:21:34;5.30;;;4.80;;
47912;SDS011;33676;51.006;17.180;2023-08-17T05:24:04;5.20;;;4.80;;
47912;SDS011;33676;51.006;17.180;2023-08-17T05:26:33;4.80;;;4.40;;
47912;SDS011;33676;51.006;17.180;2023-08-17T05:29:01;5.60;;;4.90;;
47912;SDS011;33676;51.006;17.180;2023-08-17T05:31:30;5.20;;;4.80;;
47912;SDS011;33676;51.006;17.180;2023-08-17T05:33:58;4.90;;;4.50;;
47912;SDS011;33676;51.006;17.180;2023-08-17T05:36:27;6.30;;;5.60;;
47912;SDS011;33676;51.006;17.180;2023-08-17T05:38:55;5.20;;;4.70;;
47912;SDS011;33676;51.006;17.180;2023-08-17T05:41:23;4.80;;;4.20;;
47912;SDS011;33676;51.006;17.180;2023-08-17T05:43:52;5.60;;;5.20;;
47912;SDS011;33676;51.006;17.180;2023-08-17T05:46:20;5.20;;;4.80;;
47912;SDS011;33676;51.006;17.180;2023-08-17T05:48:49;5.20;;;4.70;;
47912;SDS011;33676;51.006;17.180;2023-08-17T05:51:17;5.50;;;5.00;;
47912;SDS011;33676;51.006;17.180;2023-08-17T05:53:45;4.60;;;4.20;;
47912;SDS011;33676;51.006;17.180;2023-08-17T05:56:14;5.60;;;5.20;;
47912;SDS011;33676;51.006;17.180;2023-08-17T05:58:42;5.80;;;5.20;;
47912;SDS011;33676;51.006;17.180;2023-08-17T06:01:11;5.50;;;5.00;;
47912;SDS011;33676;51.006;17.180;2023-08-17T06:03:40;5.90;;;5.30;;
47912;SDS011;33676;51.006;17.180;2023-08-17T06:06:09;4.90;;;4.60;;
47912;SDS011;33676;51.006;17.180;2023-08-17T06:08:37;5.30;;;4.70;;
47912;SDS011;33676;51.006;17.180;2023-08-17T06:11:06;5.60;;;4.60;;
47912;SDS011;33676;51.006;17.180;2023-08-17T06:13:34;5.60;;;4.30;;
47912;SDS011;33676;51.006;17.180;2023-08-17T06:16:03;4.80;;;4.40;;
47912;SDS011;33676;51.006;17.180;2023-08-17T06:18:32;5.00;;;4.60;;
47912;SDS011;33676;51.006;17.180;2023-08-17T06:21:00;4.40;;;4.10;;
47912;SDS011;33676;51.006;17.180;2023-08-17T06:23:29;4.60;;;4.30;;
47912;SDS011;33676;51.006;17.180;2023-08-17T06:25:58;4.90;;;4.40;;
47912;SDS011;33676;51.006;17.180;2023-08-17T06:28:27;4.40;;;4.10;;
47912;SDS011;33676;51.006;17.180;2023-08-17T06:30:56;4.70;;;4.20;;
47912;SDS011;33676;51.006;17.180;2023-08-17T06:33:25;4.60;;;4.30;;
47912;SDS011;33676;51.006;17.180;2023-08-17T06:35:53;4.20;;;3.90;;
47912;SDS011;33676;51.006;17.180;2023-08-17T06:38:22;5.90;;;5.50;;
47912;SDS011;33676;51.006;17.180;2023-08-17T06:40:51;4.60;;;4.30;;
47912;SDS011;33676;51.006;17.180;2023-08-17T06:43:20;4.80;;;4.50;;
47912;SDS011;33676;51.006;17.180;2023-08-17T06:45:48;4.70;;;4.20;;
47912;SDS011;33676;51.006;17.180;2023-08-17T06:48:17;4.70;;;4.20;;
47912;SDS011;33676;51.006;17.180;2023-08-17T06:50:46;4.70;;;4.30;;
47912;SDS011;33676;51.006;17.180;2023-08-17T06:53:14;6.20;;;4.10;;
47912;SDS011;33676;51.006;17.180;2023-08-17T06:55:42;5.00;;;4.60;;
47912;SDS011;33676;51.006;17.180;2023-08-17T06:58:11;4.50;;;4.10;;
47912;SDS011;33676;51.006;17.180;2023-08-17T07:00:39;4.80;;;4.10;;
47912;SDS011;33676;51.006;17.180;2023-08-17T07:03:08;4.30;;;4.10;;
47912;SDS011;33676;51.006;17.180;2023-08-17T07:05:37;4.80;;;4.30;;
47912;SDS011;33676;51.006;17.180;2023-08-17T07:08:05;5.10;;;4.70;;
47912;SDS011;33676;51.006;17.180;2023-08-17T07:10:35;4.30;;;3.90;;
47912;SDS011;33676;51.006;17.180;2023-08-17T07:13:03;3.90;;;3.70;;
47912;SDS011;33676;51.006;17.180;2023-08-17T07:15:32;5.10;;;4.70;;
47912;SDS011;33676;51.006;17.180;2023-08-17T07:18:00;5.00;;;4.60;;
47912;SDS011;33676;51.006;17.180;2023-08-17T07:20:29;4.40;;;4.10;;
47912;SDS011;33676;51.006;17.180;2023-08-17T07:22:57;4.90;;;4.20;;
47912;SDS011;33676;51.006;17.180;2023-08-17T07:25:26;4.40;;;4.10;;
47912;SDS011;33676;51.006;17.180;2023-08-17T07:27:54;4.90;;;4.40;;
47912;SDS011;33676;51.006;17.180;2023-08-17T07:30:23;5.20;;;4.80;;
47912;SDS011;33676;51.006;17.180;2023-08-17T07:32:51;5.30;;;4.40;;
47912;SDS011;33676;51.006;17.180;2023-08-17T07:35:21;5.00;;;4.50;;
47912;SDS011;33676;51.006;17.180;2023-08-17T07:37:49;7.70;;;4.40;;
47912;SDS011;33676;51.006;17.180;2023-08-17T07:40:35;4.60;;;4.10;;
47912;SDS011;33676;51.006;17.180;2023-08-17T07:43:04;4.70;;;4.20;;
47912;SDS011;33676;51.006;17.180;2023-08-17T07:45:32;5.10;;;4.60;;
47912;SDS011;33676;51.006;17.180;2023-08-17T07:48:01;5.30;;;3.80;;
47912;SDS011;33676;51.006;17.180;2023-08-17T07:50:29;4.00;;;3.70;;
47912;SDS011;33676;51.006;17.180;2023-08-17T07:52:58;5.00;;;3.70;;
47912;SDS011;33676;51.006;17.180;2023-08-17T07:55:26;4.50;;;4.10;;
47912;SDS011;33676;51.006;17.180;2023-08-17T07:57:55;5.80;;;4.40;;
47912;SDS011;33676;51.006;17.180;2023-08-17T08:00:23;4.80;;;4.20;;
47912;SDS011;33676;51.006;17.180;2023-08-17T08:02:52;5.60;;;3.70;;
47912;SDS011;33676;51.006;17.180;2023-08-17T08:05:20;4.10;;;3.80;;
47912;SDS011;33676;51.006;17.180;2023-08-17T08:07:49;4.10;;;3.60;;
47912;SDS011;33676;51.006;17.180;2023-08-17T08:10:18;4.20;;;3.80;;
47912;SDS011;33676;51.006;17.180;2023-08-17T08:12:46;3.80;;;3.60;;
47912;SDS011;33676;51.006;17.180;2023-08-17T08:15:15;4.70;;;4.30;;
47912;SDS011;33676;51.006;17.180;2023-08-17T08:17:43;4.20;;;3.80;;
47912;SDS011;33676;51.006;17.180;2023-08-17T08:20:11;5.10;;;4.50;;
47912;SDS011;33676;51.006;17.180;2023-08-17T08:22:40;6.10;;;5.60;;
47912;SDS011;33676;51.006;17.180;2023-08-17T08:25:09;5.80;;;4.60;;
47912;SDS011;33676;51.006;17.180;2023-08-17T08:27:38;4.40;;;3.90;;
47912;SDS011;33676;51.006;17.180;2023-08-17T08:30:07;5.10;;;4.70;;
47912;SDS011;33676;51.006;17.180;2023-08-17T08:32:36;6.30;;;5.70;;
47912;SDS011;33676;51.006;17.180;2023-08-17T08:35:05;6.00;;;5.50;;
47912;SDS011;33676;51.006;17.180;2023-08-17T08:37:41;4.50;;;4.10;;
47912;SDS011;33676;51.006;17.180;2023-08-17T08:40:11;5.00;;;4.60;;
47912;SDS011;33676;51.006;17.180;2023-08-17T08:42:44;6.80;;;5.50;;
47912;SDS011;33676;51.006;17.180;2023-08-17T08:45:14;4.90;;;4.50;;
47912;SDS011;33676;51.006;17.180;2023-08-17T08:47:43;5.70;;;4.10;;
47912;SDS011;33676;51.006;17.180;2023-08-17T08:50:17;5.60;;;5.10;;
47912;SDS011;33676;51.006;17.180;2023-08-17T08:52:58;6.80;;;6.20;;
47912;SDS011;33676;51.006;17.180;2023-08-17T08:55:37;6.80;;;5.90;;
47912;SDS011;33676;51.006;17.180;2023-08-17T08:58:15;5.50;;;5.10;;
47912;SDS011;33676;51.006;17.180;2023-08-17T09:00:46;7.80;;;6.90;;
47912;SDS011;33676;51.006;17.180;2023-08-17T09:03:16;6.40;;;5.80;;
47912;SDS011;33676;51.006;17.180;2023-08-17T09:05:47;5.90;;;5.40;;
47912;SDS011;33676;51.006;17.180;2023-08-17T09:08:28;8.60;;;4.40;;
47912;SDS011;33676;51.006;17.180;2023-08-17T09:10:58;3.70;;;3.50;;
47912;SDS011;33676;51.006;17.180;2023-08-17T09:13:26;4.20;;;3.90;;
47912;SDS011;33676;51.006;17.180;2023-08-17T09:15:58;4.20;;;3.80;;
47912;SDS011;33676;51.006;17.180;2023-08-17T09:18:35;4.00;;;3.60;;
47912;SDS011;33676;51.006;17.180;2023-08-17T09:21:21;5.20;;;4.70;;
47912;SDS011;33676;51.006;17.180;2023-08-17T09:23:54;5.60;;;5.20;;
47912;SDS011;33676;51.006;17.180;2023-08-17T09:26:30;4.80;;;4.40;;
47912;SDS011;33676;51.006;17.180;2023-08-17T09:29:01;3.80;;;3.60;;
47912;SDS011;33676;51.006;17.180;2023-08-17T09:31:45;5.20;;;4.30;;
47912;SDS011;33676;51.006;17.180;2023-08-17T09:34:14;5.00;;;3.80;;
47912;SDS011;33676;51.006;17.180;2023-08-17T09:36:47;4.80;;;4.50;;
47912;SDS011;33676;51.006;17.180;2023-08-17T09:39:16;4.40;;;4.10;;
47912;SDS011;33676;51.006;17.180;2023-08-17T09:41:46;4.90;;;3.90;;
47912;SDS011;33676;51.006;17.180;2023-08-17T09:44:14;4.90;;;4.50;;
47912;SDS011;33676;51.006;17.180;2023-08-17T09:46:43;5.50;;;5.10;;
47912;SDS011;33676;51.006;17.180;2023-08-17T09:49:12;4.20;;;3.90;;
47912;SDS011;33676;51.006;17.180;2023-08-17T09:51:45;4.60;;;4.30;;
47912;SDS011;33676;51.006;17.180;2023-08-17T09:54:20;4.30;;;4.00;;
47912;SDS011;33676;51.006;17.180;2023-08-17T09:56:53;4.10;;;3.90;;
47912;SDS011;33676;51.006;17.180;2023-08-17T09:59:22;4.30;;;3.90;;
47912;SDS011;33676;51.006;17.180;2023-08-17T10:01:51;4.30;;;3.80;;
47912;SDS011;33676;51.006;17.180;2023-08-17T10:04:23;5.10;;;4.60;;
47912;SDS011;33676;51.006;17.180;2023-08-17T10:06:57;4.20;;;3.90;;
47912;SDS011;33676;51.006;17.180;2023-08-17T10:09:32;3.80;;;3.60;;
47912;SDS011;33676;51.006;17.180;2023-08-17T10:12:14;4.10;;;3.90;;
47912;SDS011;33676;51.006;17.180;2023-08-17T10:14:55;4.20;;;3.90;;
47912;SDS011;33676;51.006;17.180;2023-08-17T10:17:34;4.00;;;3.70;;
47912;SDS011;33676;51.006;17.180;2023-08-17T10:20:08;4.00;;;3.70;;
47912;SDS011;33676;51.006;17.180;2023-08-17T10:22:51;4.60;;;4.30;;
47912;SDS011;33676;51.006;17.180;2023-08-17T10:27:51;3.30;;;3.10;;
47912;SDS011;33676;51.006;17.180;2023-08-17T10:30:27;5.10;;;3.50;;
47912;SDS011;33676;51.006;17.180;2023-08-17T10:32:56;4.20;;;3.80;;
47912;SDS011;33676;51.006;17.180;2023-08-17T10:35:25;5.20;;;4.80;;
47912;SDS011;33676;51.006;17.180;2023-08-17T10:37:55;3.90;;;3.50;;
47912;SDS011;33676;51.006;17.180;2023-08-17T10:40:27;2.90;;;2.70;;
47912;SDS011;33676;51.006;17.180;2023-08-17T10:42:57;3.80;;;3.60;;
47912;SDS011;33676;51.006;17.180;2023-08-17T10:45:31;3.80;;;3.60;;
47912;SDS011;33676;51.006;17.180;2023-08-17T10:50:37;3.00;;;2.80;;
47912;SDS011;33676;51.006;17.180;2023-08-17T10:55:42;4.10;;;3.70;;
47912;SDS011;33676;51.006;17.180;2023-08-17T10:58:16;3.40;;;3.20;;
47912;SDS011;33676;51.006;17.180;2023-08-17T11:00:45;2.90;;;2.80;;
47912;SDS011;33676;51.006;17.180;2023-08-17T11:03:19;3.30;;;3.00;;
47912;SDS011;33676;51.006;17.180;2023-08-17T11:05:57;3.70;;;3.50;;
47912;SDS011;33676;51.006;17.180;2023-08-17T11:08:34;3.20;;;3.00;;
47912;SDS011;33676;51.006;17.180;2023-08-17T11:11:12;3.40;;;3.10;;
47912;SDS011;33676;51.006;17.180;2023-08-17T11:13:43;4.80;;;4.30;;
47912;SDS011;33676;51.006;17.180;2023-08-17T11:16:14;7.40;;;4.50;;
47912;SDS011;33676;51.006;17.180;2023-08-17T11:18:46;3.30;;;3.10;;
47912;SDS011;33676;51.006;17.180;2023-08-17T11:21:18;3.60;;;3.40;;
47912;SDS011;33676;51.006;17.180;2023-08-17T11:23:47;3.50;;;3.30;;
47912;SDS011;33676;51.006;17.180;2023-08-17T11:26:17;3.50;;;3.30;;
47912;SDS011;33676;51.006;17.180;2023-08-17T11:28:47;3.20;;;2.90;;
47912;SDS011;33676;51.006;17.180;2023-08-17T11:31:15;2.90;;;2.80;;
47912;SDS011;33676;51.006;17.180;2023-08-17T11:33:44;4.90;;;4.60;;
47912;SDS011;33676;51.006;17.180;2023-08-17T11:36:15;7.60;;;7.10;;
47912;SDS011;33676;51.006;17.180;2023-08-17T11:38:44;4.70;;;4.40;;
47912;SDS011;33676;51.006;17.180;2023-08-17T11:41:13;3.30;;;3.10;;
47912;SDS011;33676;51.006;17.180;2023-08-17T11:43:47;3.80;;;3.50;;
47912;SDS011;33676;51.006;17.180;2023-08-17T11:46:17;3.50;;;3.30;;
47912;SDS011;33676;51.006;17.180;2023-08-17T11:48:46;4.70;;;4.30;;
47912;SDS011;33676;51.006;17.180;2023-08-17T11:51:14;3.40;;;3.20;;
47912;SDS011;33676;51.006;17.180;2023-08-17T11:53:43;3.70;;;3.50;;
47912;SDS011;33676;51.006;17.180;2023-08-17T11:56:16;3.20;;;3.00;;
47912;SDS011;33676;51.006;17.180;2023-08-17T11:58:46;4.10;;;3.80;;
47912;SDS011;33676;51.006;17.180;2023-08-17T12:01:15;3.30;;;3.10;;
47912;SDS011;33676;51.006;17.180;2023-08-17T12:03:45;3.30;;;3.10;;
47912;SDS011;33676;51.006;17.180;2023-08-17T12:06:17;4.70;;;4.20;;
47912;SDS011;33676;51.006;17.180;2023-08-17T12:08:46;3.70;;;3.50;;
47912;SDS011;33676;51.006;17.180;2023-08-17T12:11:17;4.10;;;3.90;;
47912;SDS011;33676;51.006;17.180;2023-08-17T12:13:52;4.50;;;4.20;;
47912;SDS011;33676;51.006;17.180;2023-08-17T12:16:22;4.30;;;4.10;;
47912;SDS011;33676;51.006;17.180;2023-08-17T12:18:52;3.60;;;3.50;;
47912;SDS011;33676;51.006;17.180;2023-08-17T12:21:22;3.90;;;3.70;;
47912;SDS011;33676;51.006;17.180;2023-08-17T12:23:52;4.90;;;4.50;;
47912;SDS011;33676;51.006;17.180;2023-08-17T12:26:21;4.00;;;3.80;;
47912;SDS011;33676;51.006;17.180;2023-08-17T12:28:50;3.60;;;3.40;;
47912;SDS011;33676;51.006;17.180;2023-08-17T12:31:22;4.60;;;4.40;;
47912;SDS011;33676;51.006;17.180;2023-08-17T12:33:52;5.70;;;5.40;;
47912;SDS011;33676;51.006;17.180;2023-08-17T12:36:21;4.80;;;4.10;;
47912;SDS011;33676;51.006;17.180;2023-08-17T12:38:50;4.20;;;4.00;;
47912;SDS011;33676;51.006;17.180;2023-08-17T12:41:18;3.70;;;3.50;;
47912;SDS011;33676;51.006;17.180;2023-08-17T12:43:47;6.10;;;5.80;;
47912;SDS011;33676;51.006;17.180;2023-08-17T12:46:15;4.20;;;3.90;;
47912;SDS011;33676;51.006;17.180;2023-08-17T12:48:44;3.80;;;3.60;;
47912;SDS011;33676;51.006;17.180;2023-08-17T12:51:12;4.50;;;4.30;;
47912;SDS011;33676;51.006;17.180;2023-08-17T12:53:41;4.00;;;3.80;;
47912;SDS011;33676;51.006;17.180;2023-08-17T12:56:16;3.50;;;3.30;;
47912;SDS011;33676;51.006;17.180;2023-08-17T12:58:45;4.00;;;3.70;;
47912;SDS011;33676;51.006;17.180;2023-08-17T13:01:13;4.30;;;4.10;;
47912;SDS011;33676;51.006;17.180;2023-08-17T13:03:42;6.30;;;5.90;;
47912;SDS011;33676;51.006;17.180;2023-08-17T13:06:10;4.40;;;4.20;;
47912;SDS011;33676;51.006;17.180;2023-08-17T13:08:39;5.90;;;4.70;;
47912;SDS011;33676;51.006;17.180;2023-08-17T13:11:07;4.20;;;3.90;;
47912;SDS011;33676;51.006;17.180;2023-08-17T13:13:36;4.40;;;4.10;;
47912;SDS011;33676;51.006;17.180;2023-08-17T13:16:04;6.00;;;5.30;;
47912;SDS011;33676;51.006;17.180;2023-08-17T13:18:33;5.20;;;4.80;;
47912;SDS011;33676;51.006;17.180;2023-08-17T13:21:02;4.40;;;4.20;;
47912;SDS011;33676;51.006;17.180;2023-08-17T13:23:30;5.10;;;4.80;;
47912;SDS011;33676;51.006;17.180;2023-08-17T13:25:59;4.50;;;4.20;;
47912;SDS011;33676;51.006;17.180;2023-08-17T13:28:28;4.20;;;3.90;;
47912;SDS011;33676;51.006;17.180;2023-08-17T13:30:56;4.20;;;3.90;;
47912;SDS011;33676;51.006;17.180;2023-08-17T13:33:45;4.00;;;3.80;;
47912;SDS011;33676;51.006;17.180;2023-08-17T13:36:13;4.60;;;4.40;;
47912;SDS011;33676;51.006;17.180;2023-08-17T13:38:42;4.50;;;4.20;;
47912;SDS011;33676;51.006;17.180;2023-08-17T13:41:12;4.60;;;4.40;;
47912;SDS011;33676;51.006;17.180;2023-08-17T13:43:41;4.60;;;4.20;;
47912;SDS011;33676;51.006;17.180;2023-08-17T13:46:10;4.40;;;4.20;;
47912;SDS011;33676;51.006;17.180;2023-08-17T13:48:38;4.80;;;4.40;;
47912;SDS011;33676;51.006;17.180;2023-08-17T13:51:07;4.70;;;4.40;;
47912;SDS011;33676;51.006;17.180;2023-08-17T13:53:36;4.30;;;3.90;;
47912;SDS011;33676;51.006;17.180;2023-08-17T13:56:05;3.60;;;3.40;;
47912;SDS011;33676;51.006;17.180;2023-08-17T13:58:33;4.40;;;4.00;;
47912;SDS011;33676;51.006;17.180;2023-08-17T14:01:02;4.30;;;4.00;;
47912;SDS011;33676;51.006;17.180;2023-08-17T14:03:30;3.70;;;3.60;;
47912;SDS011;33676;51.006;17.180;2023-08-17T14:05:59;3.80;;;3.50;;
47912;SDS011;33676;51.006;17.180;2023-08-17T14:08:28;4.40;;;4.20;;
47912;SDS011;33676;51.006;17.180;2023-08-17T14:10:56;6.10;;;5.80;;
47912;SDS011;33676;51.006;17.180;2023-08-17T14:13:25;3.70;;;3.50;;
47912;SDS011;33676;51.006;17.180;2023-08-17T14:15:53;4.10;;;3.80;;
47912;SDS011;33676;51.006;17.180;2023-08-17T14:18:24;4.20;;;3.90;;
47912;SDS011;33676;51.006;17.180;2023-08-17T14:20:52;4.80;;;4.30;;
47912;SDS011;33676;51.006;17.180;2023-08-17T14:23:21;3.80;;;3.50;;
47912;SDS011;33676;51.006;17.180;2023-08-17T14:25:50;3.70;;;3.50;;
47912;SDS011;33676;51.006;17.180;2023-08-17T14:28:20;4.30;;;4.10;;
47912;SDS011;33676;51.006;17.180;2023-08-17T14:30:48;4.60;;;4.30;;
47912;SDS011;33676;51.006;17.180;2023-08-17T14:33:20;4.50;;;4.30;;
47912;SDS011;33676;51.006;17.180;2023-08-17T14:35:49;3.80;;;3.60;;
47912;SDS011;33676;51.006;17.180;2023-08-17T14:38:18;4.20;;;4.00;;
47912;SDS011;33676;51.006;17.180;2023-08-17T14:40:47;4.00;;;3.80;;
47912;SDS011;33676;51.006;17.180;2023-08-17T14:43:16;7.50;;;2.60;;
47912;SDS011;33676;51.006;17.180;2023-08-17T14:45:45;2.40;;;2.00;;
47912;SDS011;33676;51.006;17.180;2023-08-17T14:48:13;5.40;;;2.60;;
47912;SDS011;33676;51.006;17.180;2023-08-17T14:50:42;6.20;;;2.20;;
47912;SDS011;33676;51.006;17.180;2023-08-17T14:53:10;1.90;;;1.80;;
47912;SDS011;33676;51.006;17.180;2023-08-17T14:55:39;4.40;;;2.50;;
47912;SDS011;33676;51.006;17.180;2023-08-17T14:58:07;2.40;;;2.20;;
47912;SDS011;33676;51.006;17.180;2023-08-17T15:00:35;4.50;;;3.10;;
47912;SDS011;33676;51.006;17.180;2023-08-17T15:03:04;4.90;;;4.30;;